עמוד ראשי
METAR-TAF:

METAR-TAF

שדות תעופה :

Gustavus, אלסקה, ארצות הברית

קו רוחב: 58-25N, קו אורך: 135-42W, גובה: 10מטר

תצפית מזג אוויר נוכחית

הדו"ח נערך לפני 17דקות, בשעה 10:42 UTC
רוח רגועה
טמפרטורת 12 צלסיוס
לחות 94%
לחץ 1015 hPa
ראות: 16.1קילומטר
עננים בינוניים בגובה 900רגל
מעונן בגובה 1500רגל

METAR: PAGS 241042Z AUTO 00000KT 10SM BKN009 OVC015 12/11 A2996 RMK AO2 CIG 006V011 TSNO

זמן: 02:59 (10:59 UTC)

תחזית

הדו"ח נערך לפני 3 שעות ו 22דקות, בשעה 07:37 UTC
תחזית בתוקף מ 24 ב 08 UTC עד 25 ב 06 UTC
רוח 4קשר עם כיוונים משתנים
ראות: 10קילומטר
מעונן בגובה 900רגל
מ 24 ב 1200UTC
רוח 5קשר עם כיוונים משתנים
ראות: 9.7קילומטר
מעונן בגובה 700רגל
גשם קל
מ 24 ב 1800UTC
רוח 5קשר מכיוון דרום/דרום-מערב
ראות: 10קילומטר
מעונן בגובה 2000רגל
מ 25 ב 0200UTC
רוח 3קשר עם כיוונים משתנים
ראות: 10קילומטר
מעונן בגובה 3000רגל

TAF: PAGS 240737Z 2408/2506 VRB04KT P6SM OVC009 FM241200 VRB05KT 6SM -RA OVC007 FM241800 21005KT P6SM OVC020 FM250200 VRB03KT P6SM OVC030 AMD LTD TO CLD VIS AND WIND

תצפיות ותחזיות מזג אוויר לגבי יותר מ- 4,000 שדות תעופה ברחבי העולם. דוחות METAR ו- TAF.

התחנות הזמינות מסומנות בנקודות צהובות ואדומות על גבי המפה.

העבר את העכבר לנקודה הצבעונית על מנת לראות את שם התחנה.

לאחר מכן, לחץ כדי לראות את תוכן ואת תחזיות מזג האוויר.

כדי לשנות את המפה: לחץ על הכפתורים הירוקים עם הפלוס השחור כדי להתקרב; על הכפתור הירוק עם המקף כדי להתרחק; או בחיצים הירוקים למפות סמוכות.


METAR-TAF: